Time;durP1;ratioP1;P1;durP2;ratioP2;P2;SDS_P1;SDS_P2;PMS_P1;PMS_P2;Temp;Humidity;BMP_temperature;BMP_pressure;BME280_temperature;BME280_humidity;BME280_pressure;Samples;Min_cycle;Max_cycle;Signal;HPM_P1;HPM_P2
2021/03/30 00:05:57;;;;;;;1999.90;999.90;;;;;;;12.37;55.88;102447.09;15613851;28;20518;-63
2021/03/30 00:13:30;;;;;;;1999.90;999.90;;;;;;;12.26;56.29;102451.19;15582101;28;20042;-63
2021/03/30 00:21:01;;;;;;;1999.90;999.90;;;;;;;12.10;56.59;102459.84;15592590;28;20052;-62
2021/03/30 00:28:34;;;;;;;1999.90;999.90;;;;;;;12.00;57.17;102462.78;15591281;28;20092;-63
2021/03/30 00:36:06;;;;;;;1999.90;999.90;;;;;;;11.87;57.05;102457.88;15567228;28;20053;-62
2021/03/30 00:43:41;;;;;;;1999.90;999.90;;;;;;;11.71;57.51;102448.84;15606504;28;20050;-64
2021/03/30 00:51:12;;;;;;;1999.90;999.90;;;;;;;11.67;57.56;102453.38;15606886;28;20091;-62
2021/03/30 00:59:17;;;;;;;;;;;;;;;11.72;57.46;102446.88;15623887;28;20045;-62
2021/03/30 01:06:49;;;;;;;1999.90;999.90;;;;;;;11.48;57.96;102452.50;15624167;28;19921;-64
2021/03/30 01:14:42;;;;;;;1999.90;999.90;;;;;;;11.35;58.08;102458.75;15623141;28;20049;-64
2021/03/30 01:22:50;;;;;;;1999.90;999.90;;;;;;;11.36;58.28;102452.03;15623356;28;20453;-64
2021/03/30 01:30:23;;;;;;;1999.90;999.90;;;;;;;11.18;58.46;102453.66;15570914;28;20091;-62
2021/03/30 01:37:56;;;;;;;1999.90;999.90;;;;;;;11.08;58.63;102451.78;15604297;28;20072;-63
2021/03/30 01:45:30;;;;;;;1999.90;999.90;;;;;;;10.98;59.12;102443.50;15632898;28;20045;-63
2021/03/30 01:53:01;;;;;;;;;;;;;;;10.97;58.94;102451.06;15663131;28;20057;-63
2021/03/30 02:00:37;;;;;;;;;;;;;;;10.80;59.35;102456.22;15648625;28;19921;-63
2021/03/30 02:08:10;;;;;;;1999.90;999.90;;;;;;;10.61;60.13;102450.50;15661886;28;19940;-62
2021/03/30 02:15:42;;;;;;;1999.90;999.90;;;;;;;10.51;60.49;102458.13;15629482;28;20045;-64
2021/03/30 02:23:17;;;;;;;1999.90;999.90;;;;;;;10.40;60.80;102455.41;15639326;28;20136;-64
2021/03/30 02:30:51;;;;;;;1999.90;999.90;;;;;;;10.34;61.03;102464.97;15637273;28;20045;-61
2021/03/30 02:38:23;;;;;;;1999.90;999.90;;;;;;;10.31;60.65;102467.47;15653266;28;20118;-63
2021/03/30 02:45:56;;;;;;;1999.90;999.90;;;;;;;10.39;60.30;102470.50;15671494;28;20131;-63
2021/03/30 02:53:27;;;;;;;1999.90;999.90;;;;;;;10.51;59.64;102477.69;15637485;28;20107;-62
2021/03/30 03:01:01;;;;;;;1999.90;999.90;;;;;;;10.62;59.10;102471.72;15632472;28;20052;-63
2021/03/30 03:08:34;;;;;;;1999.90;999.90;;;;;;;10.57;59.09;102480.16;15666701;28;20122;-63
2021/03/30 03:16:07;;;;;;;1999.90;999.90;;;;;;;10.49;59.57;102475.19;15653966;28;20793;-64
2021/03/30 03:23:40;;;;;;;1999.90;999.90;;;;;;;10.38;59.10;102477.22;15623303;28;20382;-62
2021/03/30 03:31:14;;;;;;;1999.90;999.90;;;;;;;10.26;59.91;102482.31;15621426;28;20045;-63
2021/03/30 03:38:46;;;;;;;1999.90;999.90;;;;;;;10.05;60.36;102480.72;15602641;28;20045;-63
2021/03/30 03:46:18;;;;;;;1999.90;999.90;;;;;;;9.98;60.23;102477.41;15767968;23;20037;-68
2021/03/30 03:53:53;;;;;;;1999.90;999.90;;;;;;;9.82;60.68;102485.84;15772809;28;20047;-67
2021/03/30 04:01:35;;;;;;;1999.90;999.90;;;;;;;9.58;61.46;102495.97;15792643;28;20094;-69
2021/03/30 04:09:11;;;;;;;1999.90;999.90;;;;;;;9.68;61.86;102500.66;15768271;28;20036;-70
2021/03/30 04:16:46;;;;;;;1999.90;999.90;;;;;;;9.57;61.85;102499.88;15793437;28;20043;-69
2021/03/30 04:24:17;;;;;;;1999.90;999.90;;;;;;;9.53;61.20;102501.56;15750629;28;20033;-69
2021/03/30 04:31:50;;;;;;;1999.90;999.90;;;;;;;9.46;61.88;102501.00;15785281;28;20048;-69
2021/03/30 04:39:23;;;;;;;1999.90;999.90;;;;;;;9.40;61.56;102502.16;15741348;28;20048;-70
2021/03/30 04:46:55;;;;;;;1999.90;999.90;;;;;;;9.32;61.64;102509.13;15751196;28;20052;-68
2021/03/30 04:54:27;;;;;;;1999.90;999.90;;;;;;;9.12;62.19;102507.22;15751976;28;20040;-67
2021/03/30 05:01:59;;;;;;;1999.90;999.90;;;;;;;9.10;62.24;102512.22;15781640;28;20071;-68
2021/03/30 05:09:31;;;;;;;1999.90;999.90;;;;;;;9.21;62.15;102526.97;15793298;28;20044;-67
2021/03/30 05:17:03;;;;;;;1999.90;999.90;;;;;;;9.51;60.41;102531.69;15773225;28;20036;-67
2021/03/30 05:24:35;;;;;;;1999.90;999.90;;;;;;;10.13;59.33;102533.97;15807430;28;20040;-69
2021/03/30 05:32:07;;;;;;;1999.90;999.90;;;;;;;11.52;54.81;102543.84;15775572;28;20048;-68
2021/03/30 05:39:40;;;;;;;1999.90;999.90;;;;;;;11.98;54.05;102540.56;15794417;28;20052;-68
2021/03/30 05:47:16;;;;;;;1999.90;999.90;;;;;;;12.67;52.40;102549.44;15781610;28;20040;-68
2021/03/30 05:54:48;;;;;;;1999.90;999.90;;;;;;;13.14;51.24;102559.63;15795351;28;20042;-67
2021/03/30 06:02:22;;;;;;;1999.90;999.90;;;;;;;13.44;50.88;102568.66;15746069;28;20045;-68
2021/03/30 06:09:54;;;;;;;1999.90;999.90;;;;;;;13.94;48.79;102580.88;15730581;28;20135;-68
2021/03/30 06:17:27;;;;;;;1999.90;999.90;;;;;;;14.15;49.73;102589.72;15807097;28;20518;-67
2021/03/30 06:24:58;;;;;;;1999.90;999.90;;;;;;;14.16;47.46;102589.41;15787760;28;20044;-68
2021/03/30 06:32:35;;;;;;;1999.90;999.90;;;;;;;15.33;45.00;102590.72;15763608;28;20054;-69
2021/03/30 06:40:18;;;;;;;1999.90;999.90;;;;;;;16.45;42.38;102608.19;15807931;28;20126;-68
2021/03/30 06:47:54;;;;;;;1999.90;999.90;;;;;;;16.90;41.42;102610.78;15771396;28;20036;-69
2021/03/30 06:55:28;;;;;;;1999.90;999.90;;;;;;;17.64;40.74;102615.38;15785886;28;20063;-69
2021/03/30 07:03:04;;;;;;;1999.90;999.90;;;;;;;18.00;40.13;102620.59;15729297;28;20068;-68
2021/03/30 07:10:39;;;;;;;1999.90;999.90;;;;;;;18.84;38.01;102624.50;15772940;28;20044;-68
2021/03/30 07:18:18;;;;;;;1999.90;999.90;;;;;;;19.72;36.86;102629.09;15758098;28;20514;-68
2021/03/30 07:25:56;;;;;;;1999.90;999.90;;;;;;;20.03;35.42;102628.56;15769547;28;20070;-69
2021/03/30 07:33:33;;;;;;;1999.90;999.90;;;;;;;21.09;34.28;102638.94;15741469;28;20049;-69
2021/03/30 07:41:04;;;;;;;1999.90;999.90;;;;;;;21.57;32.10;102635.94;15779644;28;20046;-69
2021/03/30 07:48:39;;;;;;;1999.90;999.90;;;;;;;21.67;31.96;102637.41;15784714;28;20070;-68
2021/03/30 07:56:12;;;;;;;1999.90;999.90;;;;;;;22.88;30.61;102643.41;15783306;28;20040;-69
2021/03/30 08:03:46;;;;;;;1999.90;999.90;;;;;;;22.06;30.47;102640.50;15800263;28;20415;-70
2021/03/30 08:11:46;;;;;;;1999.90;999.90;;;;;;;21.86;30.85;102648.09;15742374;28;20573;-69
2021/03/30 08:19:20;;;;;;;1999.90;999.90;;;;;;;22.93;30.26;102645.16;15767516;28;20059;-70
2021/03/30 08:26:52;;;;;;;1999.90;999.90;;;;;;;23.16;29.60;102654.63;15794097;28;20036;-69
2021/03/30 08:34:27;;;;;;;1999.90;999.90;;;;;;;23.50;29.43;102652.09;15747950;28;20044;-69
2021/03/30 08:42:10;;;;;;;1999.90;999.90;;;;;;;24.05;28.80;102655.63;15761976;28;20506;-69
2021/03/30 08:49:44;;;;;;;1999.90;999.90;;;;;;;24.86;29.14;102647.63;15734521;28;20044;-69
2021/03/30 08:57:21;;;;;;;1999.90;999.90;;;;;;;25.85;26.20;102656.72;15752087;28;20055;-70
2021/03/30 09:04:54;;;;;;;1999.90;999.90;;;;;;;23.90;29.11;102654.53;15790234;28;20127;-69
2021/03/30 09:12:26;;;;;;;1999.90;999.90;;;;;;;24.48;28.93;102651.50;15736817;28;20044;-71
2021/03/30 09:20:01;;;;;;;1999.90;999.90;;;;;;;25.63;27.80;102654.78;15713791;28;20072;-69
2021/03/30 09:27:34;;;;;;;1999.90;999.90;;;;;;;25.23;29.58;102658.38;15718111;28;20167;-71
2021/03/30 09:35:14;;;;;;;1999.90;999.90;;;;;;;25.88;29.03;102658.78;15796625;28;20399;-67
2021/03/30 09:42:49;;;;;;;1999.90;999.90;;;;;;;26.34;29.05;102664.13;15747338;23;20081;-60
2021/03/30 09:50:25;;;;;;;1999.90;999.90;;;;;;;28.93;25.86;102662.66;15669207;28;20056;-65
2021/03/30 09:58:01;;;;;;;1999.90;999.90;;;;;;;30.52;24.23;102662.22;15627370;28;20068;-66
2021/03/30 10:05:37;;;;;;;1999.90;999.90;;;;;;;29.97;23.79;102652.34;15609490;28;20107;-67
2021/03/30 10:13:21;;;;;;;1999.90;999.90;;;;;;;30.35;23.16;102647.56;15617203;28;20049;-66
2021/03/30 10:20:56;;;;;;;1999.90;999.90;;;;;;;30.22;23.72;102645.59;15630542;28;20115;-66
2021/03/30 10:28:29;;;;;;;1999.90;999.90;;;;;;;29.87;23.12;102647.47;15590816;28;20072;-65
2021/03/30 10:36:02;;;;;;;1999.90;999.90;;;;;;;28.60;26.14;102643.81;15585080;28;20053;-67
2021/03/30 10:43:34;;;;;;;1999.90;999.90;;;;;;;29.35;26.15;102627.19;15587925;28;20394;-58
2021/03/30 10:51:06;;;;;;;1999.90;999.90;;;;;;;29.66;24.98;102616.78;15586773;28;20128;-60
2021/03/30 10:58:38;;;;;;;1999.90;999.90;;;;;;;28.63;26.06;102620.00;15581269;28;20053;-58
2021/03/30 11:06:10;;;;;;;1999.90;999.90;;;;;;;29.62;26.60;102603.66;15589475;28;20093;-57
2021/03/30 11:13:41;;;;;;;1999.90;999.90;;;;;;;29.08;25.96;102594.47;15571121;28;20107;-54
2021/03/30 11:21:14;;;;;;;1999.90;999.90;;;;;;;31.19;24.73;102585.75;15585974;28;20049;-54
2021/03/30 11:28:47;;;;;;;1999.90;999.90;;;;;;;29.81;24.09;102577.25;15601933;28;20045;-62
2021/03/30 11:36:23;;;;;;;1999.90;999.90;;;;;;;30.74;24.75;102575.19;15606690;28;20121;-61
2021/03/30 11:43:55;;;;;;;1999.90;999.90;;;;;;;28.94;24.50;102572.34;15608711;28;20057;-57
2021/03/30 11:51:27;;;;;;;1999.90;999.90;;;;;;;31.99;23.00;102561.09;15575913;28;20045;-59
2021/03/30 11:58:59;;;;;;;1999.90;999.90;;;;;;;30.97;22.91;102550.63;15592037;28;20417;-57
2021/03/30 12:06:31;;;;;;;1999.90;999.90;;;;;;;30.70;23.59;102550.53;15609543;28;20132;-58
2021/03/30 12:14:04;;;;;;;1999.90;999.90;;;;;;;31.61;24.70;102538.19;15609696;28;20045;-57
2021/03/30 12:21:36;;;;;;;1999.90;999.90;;;;;;;32.38;22.56;102543.09;15586959;28;20052;-61
2021/03/30 12:29:07;;;;;;;1999.90;999.90;;;;;;;33.35;21.96;102527.44;15620934;28;20080;-61
2021/03/30 12:36:40;;;;;;;1999.90;999.90;;;;;;;33.48;24.04;102520.56;15599996;28;20052;-60
2021/03/30 12:44:12;;;;;;;1999.90;999.90;;;;;;;33.53;23.22;102522.09;15615892;28;20046;-61
2021/03/30 12:51:44;;;;;;;1999.90;999.90;;;;;;;34.15;20.68;102511.44;15615219;28;20518;-61
2021/03/30 12:59:17;;;;;;;1999.90;999.90;;;;;;;32.01;23.05;102504.56;15617693;28;20107;-60
2021/03/30 13:06:49;;;;;;;1999.90;999.90;;;;;;;35.03;20.06;102489.88;15613815;28;20072;-60
2021/03/30 13:14:22;;;;;;;1999.90;999.90;;;;;;;34.16;20.41;102490.69;15596415;28;20487;-59
2021/03/30 13:21:57;;;;;;;1999.90;999.90;;;;;;;35.52;19.31;102492.47;15548514;28;20465;-62
2021/03/30 13:29:28;;;;;;;1999.90;999.90;;;;;;;36.74;18.76;102478.16;15598771;28;20057;-60
2021/03/30 13:37:00;;;;;;;1999.90;999.90;;;;;;;38.83;17.31;102475.47;15597358;28;20535;-57
2021/03/30 13:44:32;;;;;;;1999.90;999.90;;;;;;;35.72;19.38;102463.97;15599909;28;20450;-60
2021/03/30 13:52:06;;;;;;;1999.90;999.90;;;;;;;35.51;19.68;102453.91;15617432;28;20327;-60
2021/03/30 13:59:40;;;;;;;1999.90;999.90;;;;;;;27.76;27.41;102429.03;15583348;28;20060;-61
2021/03/30 14:07:12;;;;;;;1999.90;999.90;;;;;;;26.74;29.33;102424.75;15614821;28;20052;-59
2021/03/30 14:14:44;;;;;;;1999.90;999.90;;;;;;;26.23;30.07;102419.16;15614460;28;20384;-62
2021/03/30 14:22:20;;;;;;;;;;;;;;;26.52;31.89;102414.44;15615208;28;20452;-60
2021/03/30 14:29:52;;;;;;;1999.90;999.90;;;;;;;26.29;31.61;102421.25;15596373;28;20373;-60
2021/03/30 14:37:26;;;;;;;1999.90;999.90;;;;;;;26.08;31.47;102413.38;15595452;28;20042;-57
2021/03/30 14:45:06;;;;;;;1999.90;999.90;;;;;;;25.49;33.04;102408.81;15613074;28;20045;-58
2021/03/30 14:52:48;;;;;;;1999.90;999.90;;;;;;;25.23;32.30;102406.97;15613264;28;20132;-61
2021/03/30 15:00:33;;;;;;;1999.90;999.90;;;;;;;25.19;33.93;102384.06;15611990;28;20044;-61
2021/03/30 15:08:06;;;;;;;1999.90;999.90;;;;;;;25.61;33.60;102383.59;15569471;28;20504;-58
2021/03/30 15:15:39;;;;;;;1999.90;999.90;;;;;;;25.04;33.18;102379.44;15584770;28;20052;-61
2021/03/30 15:23:12;;;;;;;1999.90;999.90;;;;;;;24.98;34.29;102376.09;15604862;28;20105;-56
2021/03/30 15:30:43;;;;;;;1999.90;999.90;;;;;;;24.90;33.94;102371.50;15610195;28;20041;-60
2021/03/30 15:38:16;;;;;;;1999.90;999.90;;;;;;;24.44;34.03;102360.41;15606670;28;20112;-60
2021/03/30 15:45:51;;;;;;;1999.90;999.90;;;;;;;24.77;34.54;102356.69;15590940;28;20488;-61
2021/03/30 15:53:23;;;;;;;1999.90;999.90;;;;;;;24.47;35.45;102348.22;15605434;28;20045;-62
2021/03/30 16:00:55;;;;;;;1999.90;999.90;;;;;;;24.58;34.93;102338.94;15670012;23;20388;-66
2021/03/30 16:08:27;;;;;;;1999.90;999.90;;;;;;;24.46;35.22;102342.91;15679370;28;20037;-64
2021/03/30 16:16:00;;;;;;;1999.90;999.90;;;;;;;24.30;35.53;102337.41;15675361;28;20068;-63
2021/03/30 16:23:34;;;;;;;1999.90;999.90;;;;;;;24.15;36.55;102330.69;15702309;28;20041;-63
2021/03/30 16:31:05;;;;;;;1999.90;999.90;;;;;;;23.94;35.92;102327.53;15678450;28;20037;-64
2021/03/30 16:38:37;;;;;;;1999.90;999.90;;;;;;;23.82;36.32;102322.09;15685637;28;20443;-59
2021/03/30 16:46:09;;;;;;;1999.90;999.90;;;;;;;23.71;37.12;102326.81;15688278;28;20421;-60
2021/03/30 16:53:41;;;;;;;1999.90;999.90;;;;;;;23.76;37.79;102318.75;15686603;28;20041;-60
2021/03/30 17:01:13;;;;;;;1999.90;999.90;;;;;;;23.49;37.61;102317.91;15702698;28;20128;-61
2021/03/30 17:08:46;;;;;;;1999.90;999.90;;;;;;;23.26;39.73;102317.97;15685170;28;20068;-62
2021/03/30 17:16:18;;;;;;;1999.90;999.90;;;;;;;23.08;41.32;102324.56;15686694;28;20069;-63
2021/03/30 17:23:50;;;;;;;1999.90;999.90;;;;;;;22.58;40.80;102317.94;15689976;28;20087;-62
2021/03/30 17:31:22;;;;;;;1999.90;999.90;;;;;;;22.16;42.20;102330.09;15684817;28;20497;-62
2021/03/30 17:38:55;;;;;;;1999.90;999.90;;;;;;;21.77;42.38;102330.00;15682834;28;20049;-61
2021/03/30 17:46:26;;;;;;;1999.90;999.90;;;;;;;21.24;43.57;102323.84;15688569;28;20369;-62
2021/03/30 17:53:59;;;;;;;1999.90;999.90;;;;;;;20.96;44.91;102329.66;15693461;28;20124;-63
2021/03/30 18:01:31;;;;;;;1999.90;999.90;;;;;;;20.65;44.94;102332.44;15681863;28;20099;-62
2021/03/30 18:09:04;;;;;;;1999.90;999.90;;;;;;;20.28;46.32;102323.25;15680782;28;20067;-68
2021/03/30 18:16:38;;;;;;;1999.90;999.90;;;;;;;19.86;47.05;102323.63;15680377;28;20570;-66
2021/03/30 18:24:11;;;;;;;1999.90;999.90;;;;;;;19.48;47.88;102327.66;15680398;28;20136;-66
2021/03/30 18:31:43;;;;;;;1999.90;999.90;;;;;;;19.18;48.98;102317.81;15677223;28;20538;-68
2021/03/30 18:39:15;;;;;;;1999.90;999.90;;;;;;;18.87;49.34;102322.03;15670437;28;20084;-68
2021/03/30 18:46:47;;;;;;;1999.90;999.90;;;;;;;18.56;49.97;102321.69;15652764;28;20045;-66
2021/03/30 18:54:22;;;;;;;1999.90;999.90;;;;;;;18.35;51.04;102328.22;15674923;28;20075;-68
2021/03/30 19:01:54;;;;;;;1999.90;999.90;;;;;;;18.21;51.57;102322.00;15698358;28;20102;-65
2021/03/30 19:09:26;;;;;;;1999.90;999.90;;;;;;;17.95;51.85;102325.06;15712322;28;20052;-68
2021/03/30 19:16:58;;;;;;;1999.90;999.90;;;;;;;17.69;52.11;102321.56;15712491;28;20330;-67
2021/03/30 19:24:30;;;;;;;1999.90;999.90;;;;;;;17.43;53.03;102331.06;15710741;28;20147;-65
2021/03/30 19:32:04;;;;;;;1999.90;999.90;;;;;;;17.21;53.10;102320.06;15730413;28;20508;-66
2021/03/30 19:39:37;;;;;;;1999.90;999.90;;;;;;;16.84;54.16;102319.69;15727652;28;20155;-69
2021/03/30 19:47:09;;;;;;;1999.90;999.90;;;;;;;16.62;54.51;102317.91;15719060;28;20132;-67
2021/03/30 19:54:41;;;;;;;1999.90;999.90;;;;;;;16.43;54.81;102323.91;15682934;28;20048;-70
2021/03/30 20:02:15;;;;;;;1999.90;999.90;;;;;;;16.25;55.26;102319.47;15687481;28;20040;-66
2021/03/30 20:09:48;;;;;;;1999.90;999.90;;;;;;;16.00;55.92;102311.88;15708540;28;20119;-64
2021/03/30 20:17:19;;;;;;;1999.90;999.90;;;;;;;15.76;56.93;102304.75;15728800;28;20094;-67
2021/03/30 20:24:52;;;;;;;1999.90;999.90;;;;;;;15.63;57.28;102319.81;15711844;28;20385;-67
2021/03/30 20:32:24;;;;;;;1999.90;999.90;;;;;;;15.39;58.09;102305.31;15737155;28;20139;-64
2021/03/30 20:39:56;;;;;;;1999.90;999.90;;;;;;;15.26;58.45;102307.94;15744120;28;20040;-68
2021/03/30 20:47:28;;;;;;;1999.90;999.90;;;;;;;15.06;58.96;102296.47;15747607;28;20058;-67
2021/03/30 20:55:01;;;;;;;1999.90;999.90;;;;;;;14.85;59.42;102285.81;15730443;28;20094;-65
2021/03/30 21:02:32;;;;;;;1999.90;999.90;;;;;;;14.72;59.54;102290.38;15747510;28;20389;-65
2021/03/30 21:10:08;;;;;;;1999.90;999.90;;;;;;;14.66;59.77;102296.44;15712737;28;20049;-62
2021/03/30 21:17:40;;;;;;;1999.90;999.90;;;;;;;14.57;59.56;102292.75;15745549;28;20050;-65
2021/03/30 21:25:13;;;;;;;1999.90;999.90;;;;;;;14.39;60.01;102289.84;15725935;28;20554;-62
2021/03/30 21:32:45;;;;;;;1999.90;999.90;;;;;;;14.18;60.48;102279.47;15747523;28;20514;-65
2021/03/30 21:40:18;;;;;;;1999.90;999.90;;;;;;;13.94;60.86;102288.19;15728891;28;20431;-65
2021/03/30 21:47:50;;;;;;;1999.90;999.90;;;;;;;13.70;61.77;102271.66;15747832;28;20048;-65
2021/03/30 21:55:23;;;;;;;1999.90;999.90;;;;;;;13.65;62.12;102272.63;15728978;28;20083;-64
2021/03/30 22:02:56;;;;;;;1999.90;999.90;;;;;;;13.52;61.74;102259.44;15728754;28;20064;-63
2021/03/30 22:10:31;;;;;;;1999.90;999.90;;;;;;;13.34;62.39;102258.47;15744059;28;20044;-65
2021/03/30 22:18:03;;;;;;;1999.90;999.90;;;;;;;13.17;62.68;102261.03;15706317;28;20063;-63
2021/03/30 22:25:43;;;;;;;1999.90;999.90;;;;;;;12.99;63.02;102251.59;15680842;28;20114;-64
2021/03/30 22:33:15;;;;;;;1999.90;999.90;;;;;;;12.79;63.67;102243.63;15721965;28;20045;-64
2021/03/30 22:40:48;;;;;;;1999.90;999.90;;;;;;;12.62;63.87;102239.47;15724758;28;20048;-64
2021/03/30 22:48:20;;;;;;;1999.90;999.90;;;;;;;12.42;64.32;102246.28;15739930;28;20036;-65
2021/03/30 22:55:53;;;;;;;1999.90;999.90;;;;;;;12.23;64.73;102245.53;15734046;28;20428;-65
2021/03/30 23:03:24;;;;;;;1999.90;999.90;;;;;;;12.08;64.73;102249.41;15714192;28;20504;-64
2021/03/30 23:10:57;;;;;;;1999.90;999.90;;;;;;;11.92;65.25;102241.59;15740811;28;20483;-65
2021/03/30 23:18:28;;;;;;;1999.90;999.90;;;;;;;11.85;65.37;102234.41;15720776;28;20044;-66
2021/03/30 23:26:01;;;;;;;1999.90;999.90;;;;;;;11.75;65.60;102237.34;15723071;28;20526;-65
2021/03/30 23:33:33;;;;;;;1999.90;999.90;;;;;;;11.60;65.56;102234.81;15723451;28;20052;-64
2021/03/30 23:41:05;;;;;;;1999.90;999.90;;;;;;;11.46;66.53;102231.09;15723696;28;20052;-64
2021/03/30 23:48:37;;;;;;;1999.90;999.90;;;;;;;11.38;65.94;102227.03;15706101;28;20051;-64
2021/03/30 23:56:09;;;;;;;1999.90;999.90;;;;;;;11.20;66.86;102217.50;15705928;28;20052;-64
